Terminal Aerodrome Forecast
Issued by NWS

Home | Current Version | Previous Version | Text Only | Print | Product List | Glossary On
Versions: 1 2 3 4 5 6 7 8 9 10 11 12
000
FTUS42 TJSJ 260535
TAFKPK
TAF
TKPK 260535Z 2606/2706 06010KT P6SM SCT018
     FM261400 07012KT P6SM SCT025 SCT040
      AMD NOT SKED TIL 261100=

USA.gov is the U.S. government's official web portal to all federal, state and local government web resources and services.